A- A+ FrançaisEnglishEspañol中国

Services sur Internet Soldes sur Internet Des idées de cadeaux Météo Météo aéro

La météo à : Autours de vous Tarbes-Lourdes-PyrénéesBordeaux-Leognan-SaucatsBiarritz-Bayonne-Anglet Nice-Cote-D'azur

manche à air

La météo aéronautique pour les pilotes, la préparation du vol avec les METAR (METeorological Aerodrome Report, message d'observation des conditions météorologiques pour l'aviation) et Les TAF (Terminal Aerodrome Forecast : message de prévision à court terme des conditions météorologiques pour l'aviation). Et les autres ressources comme les VAC (Visual Approch Chart) et les NOTAM (Notice To Airman) pour préprer les vols.

Aéroport Umea (Suède) / OACI ESNU/ IATA UME

L'altitude de l'aéroport Umea est de 7 m = 23 ft. Il est situé à proximité de Umeå (Suède). La météo générale à 5 jours est disponible pour Berghem situé à 4.2 km.

METAR de l'aéroport Umea - ESNU

ESNU 170720Z AUTO 03004KT 1800 -SN VV011 00/00 Q1014 R14/72//35

Décodage du METAR de l'aéroport Umea (SE)

METAR émis par ESNU le dimanche 17 novembre 2019 à 07:20 heure TU. C'est un METAR généré automatiquement. Attention ce METAR est obsolète car il a été émis il y a 6 heure et 46 minutes.

La visibilité est de 1.8 km = 1.1 sm.

La température est de 0°C = 32 °F et le point rosée est de 0°C = 32 °F . Ce qui correspond à 100% d'humidité relative.

Le QNH est de 1014 hPa = 29.94 inHg

Vent de 4 kt = 7 km/h, orienté à 30°.

Nuages : VV1100 ft = 340 mètres.

-SN

R14/72//35

TAF de l'aéroport Umea - ESNU

ESNU 170730Z 1707/1715 04005KT 4000 SN OVC012 TEMPO 1707/1712 1200 -SN VV004 PROB40 1712/1715 0800 -SN BR VV002

ESNU 170730Z 1707/1715 04005KT 4000 neige couverture nuageuse soudée à 012 temporairement 1707/1712 1200 faible SN VV004 probabilité de 40% d'avoir 1712/1715 0800 faible SN brume VV002

Aéroport à proximité de Umea

Météo générale à 5 jours à Berghem (4.2 km)Aéroport Ornskoldsvik (77 km)Aéroport Skelleftea (100 km)Aéroport Vaasa (110 km)Aéroport Lycksele (113 km)Aéroport Kokkola Kruunupyy (141 km)Aéroport Kramfors (150 km)

Vue aérienne de l'aéroport Umea

NOTAM de l'aéroport Umea

Les NOTAM sont fournis sans aucune garantie de leur actualité. Le pilote est le seul responsable de la vérification de sa validité avant de l'utiliser opérationnellement pour préparer un vol ou l'utiliser lors de sa navigation.

Pas de NOTAM

Sources des données